• Join FlightAware (Why Join?)
  • Login
  • US Flag 
12:03PM EDT


 

Airport Tracker/Info


-or-


 

Live Flight TrackerFlight Track Log ✈ EJA951 ✈ 24-May-2013 ✈ KALB - KHPN

Flight Track Log - Related Links

Times and Time Zones

All times are in EDT time to prevent confusion due to time zone crossing. See the EJA951 flight status page for this flight to view local times or setup timezone preferences in your user account.

Time Position Orientation Groundspeed Altitude Reporting Facility
EDT Latitude Longitude Course Direction KTS MPH feet Rate Location/Type
05:21AM 42.7631 -73.8089 286° West 167 192 1,100  Level Boston Center
05:23AM 42.7769 -73.8742 286° West 212 244 6,700 3,780 Climbing Boston Center
05:24AM 42.7103 -73.8642 174° South 175 201 10,700 3,240 Climbing Boston Center
05:25AM 42.6292 -73.8594 178° South 227 261 13,200 1,620 Climbing Boston Center
05:26AM 42.5125 -73.8597 180° South 351 404 14,000 360 Climbing Boston Center
05:27AM 42.4103 -73.8600 180° South 396 456 14,000  Level Boston Center
05:28AM 42.2894 -73.8631 181° South 407 468 14,000  Level Boston Center
05:29AM 42.1892 -73.8636 180° South 401 461 14,000  Level Boston Center
05:30AM 42.0642 -73.8664 181° South 401 461 14,000  Level Boston Center
05:31AM 41.9536 -73.8722 182° South 401 461 14,000 -120 Level Boston Center
05:32AM 41.8536 -73.8728 180° South 406 467 13,800 -1,200 Descending Boston Center
05:33AM 41.7389 -73.8756 181° South 395 455 11,600 -1,980 Descending Boston Center
05:34AM 41.6472 -73.8792 182° South 361 415 9,900 -1,860 Descending Boston Center
05:34AM 41.6000 -73.8833 184° South 302 348 8,800 -1,800 Descending New York TRACON
05:35AM 41.5167 -73.8833 180° South 286 329 7,200 -1,560 Descending New York TRACON
05:36AM 41.4500 -73.8833 180° South 270 311 5,700 -1,500 Descending New York TRACON
05:37AM 41.3667 -73.8833 180° South 261 300 4,300 -1,380 Descending New York TRACON
05:38AM 41.3000 -73.8833 180° South 255 293 3,000 -1,080 Descending New York TRACON
05:39AM 41.2333 -73.8333 151° Southeast 262 302 2,200 -540 Descending New York TRACON
05:40AM 41.1833 -73.8000 153° Southeast 228 262 2,000 -300 Descending New York TRACON
05:41AM 41.1333 -73.7500 143° Southeast 189 217 1,700 -600 Descending New York TRACON
05:42AM 41.1000 -73.7333 159° South 148 170 900 -840 Descending New York TRACON
05:44AM 41.0669 -73.7076 255° West  Level Estimated
05:51AM 41.0667 -73.7000 255° West  Level FlightAware Approximate
05:52AM 41.0669 -73.7076 255° West  Level Estimated
05:53AM 41.0667 -73.7000 255° West  Level FlightAware Approximate